sensor_id;sensor_type;location;lat;lon;timestamp;temperature;humidity
3550;DHT22;45572;48.804;8.330;2023-11-21T00:00:08;10.00;96.80
3550;DHT22;45572;48.804;8.330;2023-11-21T00:02:39;10.00;96.80
3550;DHT22;45572;48.804;8.330;2023-11-21T00:05:07;10.00;96.80
3550;DHT22;45572;48.804;8.330;2023-11-21T00:07:36;10.00;96.80
3550;DHT22;45572;48.804;8.330;2023-11-21T00:10:05;10.00;96.80
3550;DHT22;45572;48.804;8.330;2023-11-21T00:12:34;10.10;96.80
3550;DHT22;45572;48.804;8.330;2023-11-21T00:15:03;10.10;96.80
3550;DHT22;45572;48.804;8.330;2023-11-21T00:17:32;10.10;96.80
3550;DHT22;45572;48.804;8.330;2023-11-21T00:20:00;10.10;96.80
3550;DHT22;45572;48.804;8.330;2023-11-21T00:22:30;10.10;96.80
3550;DHT22;45572;48.804;8.330;2023-11-21T00:24:59;10.10;96.60
3550;DHT22;45572;48.804;8.330;2023-11-21T00:27:27;10.10;96.20
3550;DHT22;45572;48.804;8.330;2023-11-21T00:29:56;10.20;96.60
3550;DHT22;45572;48.804;8.330;2023-11-21T00:32:24;10.10;96.10
3550;DHT22;45572;48.804;8.330;2023-11-21T00:34:52;10.10;95.80
3550;DHT22;45572;48.804;8.330;2023-11-21T00:37:21;10.10;96.20
3550;DHT22;45572;48.804;8.330;2023-11-21T00:39:50;10.10;96.70
3550;DHT22;45572;48.804;8.330;2023-11-21T00:42:18;10.10;96.80
3550;DHT22;45572;48.804;8.330;2023-11-21T00:44:56;10.10;96.80
3550;DHT22;45572;48.804;8.330;2023-11-21T00:47:24;10.20;96.80
3550;DHT22;45572;48.804;8.330;2023-11-21T00:49:52;10.20;96.70
3550;DHT22;45572;48.804;8.330;2023-11-21T00:52:20;10.10;96.60
3550;DHT22;45572;48.804;8.330;2023-11-21T00:54:49;10.10;96.40
3550;DHT22;45572;48.804;8.330;2023-11-21T00:57:17;10.20;96.60
3550;DHT22;45572;48.804;8.330;2023-11-21T00:59:45;10.20;96.70
3550;DHT22;45572;48.804;8.330;2023-11-21T01:02:14;10.20;96.30
3550;DHT22;45572;48.804;8.330;2023-11-21T01:04:42;10.20;96.40
3550;DHT22;45572;48.804;8.330;2023-11-21T01:07:10;10.20;96.30
3550;DHT22;45572;48.804;8.330;2023-11-21T01:09:38;10.20;95.90
3550;DHT22;45572;48.804;8.330;2023-11-21T01:12:06;10.20;96.10
3550;DHT22;45572;48.804;8.330;2023-11-21T01:14:34;10.20;96.20
3550;DHT22;45572;48.804;8.330;2023-11-21T01:17:03;10.20;96.50
3550;DHT22;45572;48.804;8.330;2023-11-21T01:19:33;10.20;96.80
3550;DHT22;45572;48.804;8.330;2023-11-21T01:22:01;10.20;96.80
3550;DHT22;45572;48.804;8.330;2023-11-21T01:24:29;10.20;96.80
3550;DHT22;45572;48.804;8.330;2023-11-21T01:26:56;10.10;96.70
3550;DHT22;45572;48.804;8.330;2023-11-21T01:29:25;10.10;96.60
3550;DHT22;45572;48.804;8.330;2023-11-21T01:31:52;10.10;96.80
3550;DHT22;45572;48.804;8.330;2023-11-21T01:34:21;10.20;96.80
3550;DHT22;45572;48.804;8.330;2023-11-21T01:36:51;10.20;96.80
3550;DHT22;45572;48.804;8.330;2023-11-21T01:39:19;10.30;96.80
3550;DHT22;45572;48.804;8.330;2023-11-21T01:41:50;10.30;96.80
3550;DHT22;45572;48.804;8.330;2023-11-21T01:44:18;10.40;96.80
3550;DHT22;45572;48.804;8.330;2023-11-21T01:46:47;10.40;96.80
3550;DHT22;45572;48.804;8.330;2023-11-21T01:49:15;10.30;96.80
3550;DHT22;45572;48.804;8.330;2023-11-21T01:51:47;10.40;96.80
3550;DHT22;45572;48.804;8.330;2023-11-21T01:54:17;10.50;96.80
3550;DHT22;45572;48.804;8.330;2023-11-21T01:56:46;10.40;96.80
3550;DHT22;45572;48.804;8.330;2023-11-21T01:59:18;10.40;96.80
3550;DHT22;45572;48.804;8.330;2023-11-21T02:01:47;10.40;96.80
3550;DHT22;45572;48.804;8.330;2023-11-21T02:04:17;10.50;96.80
3550;DHT22;45572;48.804;8.330;2023-11-21T02:06:45;10.40;96.80
3550;DHT22;45572;48.804;8.330;2023-11-21T02:09:13;10.30;96.80
3550;DHT22;45572;48.804;8.330;2023-11-21T02:11:43;10.40;96.80
3550;DHT22;45572;48.804;8.330;2023-11-21T02:14:11;10.50;96.80
3550;DHT22;45572;48.804;8.330;2023-11-21T02:16:40;10.60;96.80
3550;DHT22;45572;48.804;8.330;2023-11-21T02:19:18;10.60;96.80
3550;DHT22;45572;48.804;8.330;2023-11-21T02:21:47;10.60;96.80
3550;DHT22;45572;48.804;8.330;2023-11-21T02:24:18;10.70;96.80
3550;DHT22;45572;48.804;8.330;2023-11-21T02:26:46;10.70;96.80
3550;DHT22;45572;48.804;8.330;2023-11-21T02:29:14;10.70;96.80
3550;DHT22;45572;48.804;8.330;2023-11-21T02:31:45;10.70;96.80
3550;DHT22;45572;48.804;8.330;2023-11-21T02:34:16;10.80;96.80
3550;DHT22;45572;48.804;8.330;2023-11-21T02:36:44;10.80;96.80
3550;DHT22;45572;48.804;8.330;2023-11-21T02:39:12;10.70;96.80
3550;DHT22;45572;48.804;8.330;2023-11-21T02:41:42;10.80;96.80
3550;DHT22;45572;48.804;8.330;2023-11-21T02:44:10;10.70;96.80
3550;DHT22;45572;48.804;8.330;2023-11-21T02:46:38;10.70;96.80
3550;DHT22;45572;48.804;8.330;2023-11-21T02:49:06;10.70;96.80
3550;DHT22;45572;48.804;8.330;2023-11-21T02:51:36;10.70;96.80
3550;DHT22;45572;48.804;8.330;2023-11-21T02:54:06;10.70;96.80
3550;DHT22;45572;48.804;8.330;2023-11-21T02:56:34;10.60;96.80
3550;DHT22;45572;48.804;8.330;2023-11-21T02:59:04;10.50;96.80
3550;DHT22;45572;48.804;8.330;2023-11-21T03:01:32;10.50;96.80
3550;DHT22;45572;48.804;8.330;2023-11-21T03:04:00;10.40;96.80
3550;DHT22;45572;48.804;8.330;2023-11-21T03:06:28;10.40;96.80
3550;DHT22;45572;48.804;8.330;2023-11-21T03:08:56;10.40;96.80
3550;DHT22;45572;48.804;8.330;2023-11-21T03:11:24;10.40;96.80
3550;DHT22;45572;48.804;8.330;2023-11-21T03:13:52;10.40;96.80
3550;DHT22;45572;48.804;8.330;2023-11-21T03:16:24;10.40;96.80
3550;DHT22;45572;48.804;8.330;2023-11-21T03:18:52;10.40;96.80
3550;DHT22;45572;48.804;8.330;2023-11-21T03:21:20;10.30;96.80
3550;DHT22;45572;48.804;8.330;2023-11-21T03:23:48;10.30;96.80
3550;DHT22;45572;48.804;8.330;2023-11-21T03:26:17;10.30;96.80
3550;DHT22;45572;48.804;8.330;2023-11-21T03:28:44;10.30;96.80
3550;DHT22;45572;48.804;8.330;2023-11-21T03:31:12;10.40;96.80
3550;DHT22;45572;48.804;8.330;2023-11-21T03:33:41;10.50;96.80
3550;DHT22;45572;48.804;8.330;2023-11-21T03:36:13;10.60;96.80
3550;DHT22;45572;48.804;8.330;2023-11-21T03:38:42;10.70;96.80
3550;DHT22;45572;48.804;8.330;2023-11-21T03:41:10;10.60;96.80
3550;DHT22;45572;48.804;8.330;2023-11-21T03:43:38;10.70;96.80
3550;DHT22;45572;48.804;8.330;2023-11-21T03:46:06;10.70;96.80
3550;DHT22;45572;48.804;8.330;2023-11-21T03:48:35;10.60;96.80
3550;DHT22;45572;48.804;8.330;2023-11-21T03:51:05;10.50;96.80
3550;DHT22;45572;48.804;8.330;2023-11-21T03:53:34;10.40;96.80
3550;DHT22;45572;48.804;8.330;2023-11-21T03:56:03;10.50;96.80
3550;DHT22;45572;48.804;8.330;2023-11-21T03:58:32;10.50;96.80
3550;DHT22;45572;48.804;8.330;2023-11-21T04:01:00;10.50;96.80
3550;DHT22;45572;48.804;8.330;2023-11-21T04:03:29;10.50;96.80
3550;DHT22;45572;48.804;8.330;2023-11-21T04:05:57;10.40;96.80
3550;DHT22;45572;48.804;8.330;2023-11-21T04:08:26;10.30;96.80
3550;DHT22;45572;48.804;8.330;2023-11-21T04:10:54;10.10;96.80
3550;DHT22;45572;48.804;8.330;2023-11-21T04:13:22;10.10;96.80
3550;DHT22;45572;48.804;8.330;2023-11-21T04:15:50;10.10;96.80
3550;DHT22;45572;48.804;8.330;2023-11-21T04:18:18;10.10;96.80
3550;DHT22;45572;48.804;8.330;2023-11-21T04:20:48;10.10;96.80
3550;DHT22;45572;48.804;8.330;2023-11-21T04:23:16;9.90;96.80
3550;DHT22;45572;48.804;8.330;2023-11-21T04:25:45;9.90;96.80
3550;DHT22;45572;48.804;8.330;2023-11-21T04:28:13;10.00;96.80
3550;DHT22;45572;48.804;8.330;2023-11-21T04:30:41;10.00;96.80
3550;DHT22;45572;48.804;8.330;2023-11-21T04:33:09;10.00;96.80
3550;DHT22;45572;48.804;8.330;2023-11-21T04:35:37;10.00;96.80
3550;DHT22;45572;48.804;8.330;2023-11-21T04:38:04;10.10;96.80
3550;DHT22;45572;48.804;8.330;2023-11-21T04:40:33;10.20;96.80
3550;DHT22;45572;48.804;8.330;2023-11-21T04:43:02;10.20;96.80
3550;DHT22;45572;48.804;8.330;2023-11-21T04:45:30;10.20;96.80
3550;DHT22;45572;48.804;8.330;2023-11-21T04:48:01;10.20;96.80
3550;DHT22;45572;48.804;8.330;2023-11-21T04:50:32;10.10;96.80
3550;DHT22;45572;48.804;8.330;2023-11-21T04:53:00;10.00;96.80
3550;DHT22;45572;48.804;8.330;2023-11-21T04:55:28;9.90;96.80
3550;DHT22;45572;48.804;8.330;2023-11-21T04:57:55;9.90;96.80
3550;DHT22;45572;48.804;8.330;2023-11-21T05:00:25;9.80;96.80
3550;DHT22;45572;48.804;8.330;2023-11-21T05:02:53;9.80;96.80
3550;DHT22;45572;48.804;8.330;2023-11-21T05:05:21;9.90;96.80
3550;DHT22;45572;48.804;8.330;2023-11-21T05:07:49;10.00;96.80
3550;DHT22;45572;48.804;8.330;2023-11-21T05:10:17;10.00;96.80
3550;DHT22;45572;48.804;8.330;2023-11-21T05:12:45;9.90;96.80
3550;DHT22;45572;48.804;8.330;2023-11-21T05:15:15;9.90;96.80
3550;DHT22;45572;48.804;8.330;2023-11-21T05:17:45;9.80;96.80
3550;DHT22;45572;48.804;8.330;2023-11-21T05:20:16;9.90;96.80
3550;DHT22;45572;48.804;8.330;2023-11-21T05:22:47;9.90;96.80
3550;DHT22;45572;48.804;8.330;2023-11-21T05:25:16;10.00;96.80
3550;DHT22;45572;48.804;8.330;2023-11-21T05:27:47;9.90;96.80
3550;DHT22;45572;48.804;8.330;2023-11-21T05:30:21;9.90;96.80
3550;DHT22;45572;48.804;8.330;2023-11-21T05:32:51;9.90;96.80
3550;DHT22;45572;48.804;8.330;2023-11-21T05:35:19;9.90;96.80
3550;DHT22;45572;48.804;8.330;2023-11-21T05:37:47;10.00;96.80
3550;DHT22;45572;48.804;8.330;2023-11-21T05:40:15;10.10;96.80
3550;DHT22;45572;48.804;8.330;2023-11-21T05:42:44;10.20;96.80
3550;DHT22;45572;48.804;8.330;2023-11-21T05:45:12;10.20;96.80
3550;DHT22;45572;48.804;8.330;2023-11-21T05:47:41;10.30;96.80
3550;DHT22;45572;48.804;8.330;2023-11-21T05:50:11;10.20;96.80
3550;DHT22;45572;48.804;8.330;2023-11-21T05:52:41;10.20;96.80
3550;DHT22;45572;48.804;8.330;2023-11-21T05:55:09;10.20;96.80
3550;DHT22;45572;48.804;8.330;2023-11-21T05:57:38;10.20;96.80
3550;DHT22;45572;48.804;8.330;2023-11-21T06:00:08;10.30;96.80
3550;DHT22;45572;48.804;8.330;2023-11-21T06:02:41;10.30;96.80
3550;DHT22;45572;48.804;8.330;2023-11-21T06:05:11;10.30;96.80
3550;DHT22;45572;48.804;8.330;2023-11-21T06:07:39;10.30;96.80
3550;DHT22;45572;48.804;8.330;2023-11-21T06:10:08;10.30;96.80
3550;DHT22;45572;48.804;8.330;2023-11-21T06:12:38;10.40;96.80
3550;DHT22;45572;48.804;8.330;2023-11-21T06:15:08;10.50;96.80
3550;DHT22;45572;48.804;8.330;2023-11-21T06:17:36;10.50;96.80
3550;DHT22;45572;48.804;8.330;2023-11-21T06:20:06;10.30;96.80
3550;DHT22;45572;48.804;8.330;2023-11-21T06:22:38;10.20;96.80
3550;DHT22;45572;48.804;8.330;2023-11-21T06:25:08;10.10;96.80
3550;DHT22;45572;48.804;8.330;2023-11-21T06:27:38;10.20;96.80
3550;DHT22;45572;48.804;8.330;2023-11-21T06:30:08;10.30;96.80
3550;DHT22;45572;48.804;8.330;2023-11-21T06:32:37;10.20;96.80
3550;DHT22;45572;48.804;8.330;2023-11-21T06:35:07;10.20;96.80
3550;DHT22;45572;48.804;8.330;2023-11-21T06:37:38;10.20;96.80
3550;DHT22;45572;48.804;8.330;2023-11-21T06:40:07;10.30;96.80
3550;DHT22;45572;48.804;8.330;2023-11-21T06:42:36;10.30;96.80
3550;DHT22;45572;48.804;8.330;2023-11-21T06:45:09;10.30;96.80
3550;DHT22;45572;48.804;8.330;2023-11-21T06:47:38;10.40;96.80
3550;DHT22;45572;48.804;8.330;2023-11-21T06:50:07;10.40;96.80
3550;DHT22;45572;48.804;8.330;2023-11-21T06:52:35;10.40;96.80
3550;DHT22;45572;48.804;8.330;2023-11-21T06:55:04;10.50;96.80
3550;DHT22;45572;48.804;8.330;2023-11-21T06:57:34;10.50;96.80
3550;DHT22;45572;48.804;8.330;2023-11-21T07:00:03;10.50;96.80
3550;DHT22;45572;48.804;8.330;2023-11-21T07:02:31;10.50;96.80
3550;DHT22;45572;48.804;8.330;2023-11-21T07:04:59;10.50;96.80
3550;DHT22;45572;48.804;8.330;2023-11-21T07:07:28;10.50;96.80
3550;DHT22;45572;48.804;8.330;2023-11-21T07:09:56;10.50;96.80
3550;DHT22;45572;48.804;8.330;2023-11-21T07:12:25;10.40;96.80
3550;DHT22;45572;48.804;8.330;2023-11-21T07:14:53;10.50;96.80
3550;DHT22;45572;48.804;8.330;2023-11-21T07:17:20;10.50;96.80
3550;DHT22;45572;48.804;8.330;2023-11-21T07:19:50;10.50;96.80
3550;DHT22;45572;48.804;8.330;2023-11-21T07:22:17;10.50;96.80
3550;DHT22;45572;48.804;8.330;2023-11-21T07:24:48;10.50;96.80
3550;DHT22;45572;48.804;8.330;2023-11-21T07:27:17;10.50;96.80
3550;DHT22;45572;48.804;8.330;2023-11-21T07:29:47;10.50;96.80
3550;DHT22;45572;48.804;8.330;2023-11-21T07:32:15;10.50;96.80
3550;DHT22;45572;48.804;8.330;2023-11-21T07:34:43;10.50;96.80
3550;DHT22;45572;48.804;8.330;2023-11-21T07:37:11;10.50;96.80
3550;DHT22;45572;48.804;8.330;2023-11-21T07:39:39;10.50;96.80
3550;DHT22;45572;48.804;8.330;2023-11-21T07:42:08;10.60;96.80
3550;DHT22;45572;48.804;8.330;2023-11-21T07:44:37;10.60;96.80
3550;DHT22;45572;48.804;8.330;2023-11-21T07:47:06;10.60;96.80
3550;DHT22;45572;48.804;8.330;2023-11-21T07:49:34;10.60;96.80
3550;DHT22;45572;48.804;8.330;2023-11-21T07:52:02;10.30;96.80
3550;DHT22;45572;48.804;8.330;2023-11-21T07:54:31;10.30;96.80
3550;DHT22;45572;48.804;8.330;2023-11-21T07:57:01;10.30;96.80
3550;DHT22;45572;48.804;8.330;2023-11-21T07:59:30;10.40;96.80
3550;DHT22;45572;48.804;8.330;2023-11-21T08:01:58;10.40;96.80
3550;DHT22;45572;48.804;8.330;2023-11-21T08:04:28;10.30;96.80
3550;DHT22;45572;48.804;8.330;2023-11-21T08:07:00;10.40;96.80
3550;DHT22;45572;48.804;8.330;2023-11-21T08:09:28;10.50;96.80
3550;DHT22;45572;48.804;8.330;2023-11-21T08:11:56;10.60;96.80
3550;DHT22;45572;48.804;8.330;2023-11-21T08:14:24;10.60;96.80
3550;DHT22;45572;48.804;8.330;2023-11-21T08:16:52;10.60;96.80
3550;DHT22;45572;48.804;8.330;2023-11-21T08:19:24;10.50;96.80
3550;DHT22;45572;48.804;8.330;2023-11-21T08:21:53;10.40;96.80
3550;DHT22;45572;48.804;8.330;2023-11-21T08:24:22;10.50;96.80
3550;DHT22;45572;48.804;8.330;2023-11-21T08:26:50;10.50;96.80
3550;DHT22;45572;48.804;8.330;2023-11-21T08:29:18;10.60;96.80
3550;DHT22;45572;48.804;8.330;2023-11-21T08:31:46;10.60;96.80
3550;DHT22;45572;48.804;8.330;2023-11-21T08:34:14;10.60;96.80
3550;DHT22;45572;48.804;8.330;2023-11-21T08:36:42;10.70;96.80
3550;DHT22;45572;48.804;8.330;2023-11-21T08:39:11;10.70;96.80
3550;DHT22;45572;48.804;8.330;2023-11-21T08:41:40;10.80;96.80
3550;DHT22;45572;48.804;8.330;2023-11-21T08:44:08;10.80;96.80
3550;DHT22;45572;48.804;8.330;2023-11-21T08:46:35;10.90;96.80
3550;DHT22;45572;48.804;8.330;2023-11-21T08:49:04;10.90;96.80
3550;DHT22;45572;48.804;8.330;2023-11-21T08:51:32;11.00;96.80
3550;DHT22;45572;48.804;8.330;2023-11-21T08:54:00;11.00;96.80
3550;DHT22;45572;48.804;8.330;2023-11-21T08:56:32;11.00;96.80
3550;DHT22;45572;48.804;8.330;2023-11-21T08:59:03;11.00;96.80
3550;DHT22;45572;48.804;8.330;2023-11-21T09:01:31;11.00;96.80
3550;DHT22;45572;48.804;8.330;2023-11-21T09:03:59;11.00;96.80
3550;DHT22;45572;48.804;8.330;2023-11-21T09:06:29;11.00;96.80
3550;DHT22;45572;48.804;8.330;2023-11-21T09:08:57;10.90;96.80
3550;DHT22;45572;48.804;8.330;2023-11-21T09:11:24;10.70;96.80
3550;DHT22;45572;48.804;8.330;2023-11-21T09:13:59;10.70;96.80
3550;DHT22;45572;48.804;8.330;2023-11-21T09:16:27;10.80;96.80
3550;DHT22;45572;48.804;8.330;2023-11-21T09:18:55;10.80;96.80
3550;DHT22;45572;48.804;8.330;2023-11-21T09:21:26;10.90;96.80
3550;DHT22;45572;48.804;8.330;2023-11-21T09:23:54;11.00;96.80
3550;DHT22;45572;48.804;8.330;2023-11-21T09:26:22;11.00;96.80
3550;DHT22;45572;48.804;8.330;2023-11-21T09:28:50;11.10;96.80
3550;DHT22;45572;48.804;8.330;2023-11-21T09:31:19;11.20;96.80
3550;DHT22;45572;48.804;8.330;2023-11-21T09:33:49;11.30;96.80
3550;DHT22;45572;48.804;8.330;2023-11-21T09:36:17;11.30;96.80
3550;DHT22;45572;48.804;8.330;2023-11-21T09:38:45;11.30;96.80
3550;DHT22;45572;48.804;8.330;2023-11-21T09:41:20;11.30;96.20
3550;DHT22;45572;48.804;8.330;2023-11-21T09:43:50;11.30;96.10
3550;DHT22;45572;48.804;8.330;2023-11-21T09:46:23;11.30;96.20
3550;DHT22;45572;48.804;8.330;2023-11-21T09:48:53;11.30;96.30
3550;DHT22;45572;48.804;8.330;2023-11-21T09:51:24;11.30;96.40
3550;DHT22;45572;48.804;8.330;2023-11-21T09:53:57;11.20;96.40
3550;DHT22;45572;48.804;8.330;2023-11-21T09:56:28;11.20;96.80
3550;DHT22;45572;48.804;8.330;2023-11-21T09:58:56;11.10;96.70
3550;DHT22;45572;48.804;8.330;2023-11-21T10:01:32;11.10;96.80
3550;DHT22;45572;48.804;8.330;2023-11-21T10:04:01;11.10;96.80
3550;DHT22;45572;48.804;8.330;2023-11-21T10:06:30;11.10;96.80
3550;DHT22;45572;48.804;8.330;2023-11-21T10:08:59;11.10;96.80
3550;DHT22;45572;48.804;8.330;2023-11-21T10:11:27;11.10;96.80
3550;DHT22;45572;48.804;8.330;2023-11-21T10:13:59;11.10;96.80
3550;DHT22;45572;48.804;8.330;2023-11-21T10:16:29;11.20;96.80
3550;DHT22;45572;48.804;8.330;2023-11-21T10:18:58;11.20;96.80
3550;DHT22;45572;48.804;8.330;2023-11-21T10:21:38;11.30;96.80
3550;DHT22;45572;48.804;8.330;2023-11-21T10:24:06;11.30;96.80
3550;DHT22;45572;48.804;8.330;2023-11-21T10:26:35;11.30;96.80
3550;DHT22;45572;48.804;8.330;2023-11-21T10:29:19;11.30;96.80
3550;DHT22;45572;48.804;8.330;2023-11-21T10:31:49;11.40;96.80
3550;DHT22;45572;48.804;8.330;2023-11-21T10:34:19;11.40;96.80
3550;DHT22;45572;48.804;8.330;2023-11-21T10:36:48;11.40;96.80
3550;DHT22;45572;48.804;8.330;2023-11-21T10:39:17;11.40;96.70
3550;DHT22;45572;48.804;8.330;2023-11-21T10:41:45;11.40;96.50
3550;DHT22;45572;48.804;8.330;2023-11-21T10:44:14;11.40;96.50
3550;DHT22;45572;48.804;8.330;2023-11-21T10:46:49;11.40;96.40
3550;DHT22;45572;48.804;8.330;2023-11-21T10:49:20;11.30;96.30
3550;DHT22;45572;48.804;8.330;2023-11-21T10:51:47;11.30;96.40
3550;DHT22;45572;48.804;8.330;2023-11-21T10:54:18;11.40;96.50
3550;DHT22;45572;48.804;8.330;2023-11-21T10:56:48;11.40;96.60
3550;DHT22;45572;48.804;8.330;2023-11-21T10:59:18;11.30;96.60
3550;DHT22;45572;48.804;8.330;2023-11-21T11:01:49;11.30;96.80
3550;DHT22;45572;48.804;8.330;2023-11-21T11:04:20;11.40;96.80
3550;DHT22;45572;48.804;8.330;2023-11-21T11:06:54;11.40;96.80
3550;DHT22;45572;48.804;8.330;2023-11-21T11:09:23;11.30;96.80
3550;DHT22;45572;48.804;8.330;2023-11-21T11:11:51;11.30;96.80
3550;DHT22;45572;48.804;8.330;2023-11-21T11:14:20;11.10;96.80
3550;DHT22;45572;48.804;8.330;2023-11-21T11:16:54;11.00;96.80
3550;DHT22;45572;48.804;8.330;2023-11-21T11:19:23;10.80;96.80
3550;DHT22;45572;48.804;8.330;2023-11-21T11:22:00;10.80;96.80
3550;DHT22;45572;48.804;8.330;2023-11-21T11:24:41;10.80;96.80
3550;DHT22;45572;48.804;8.330;2023-11-21T11:27:20;10.80;96.80
3550;DHT22;45572;48.804;8.330;2023-11-21T11:29:59;10.70;96.80
3550;DHT22;45572;48.804;8.330;2023-11-21T11:32:55;10.70;96.80
3550;DHT22;45572;48.804;8.330;2023-11-21T11:35:34;10.80;96.80
3550;DHT22;45572;48.804;8.330;2023-11-21T11:38:04;10.80;96.80
3550;DHT22;45572;48.804;8.330;2023-11-21T11:40:40;10.80;96.80
3550;DHT22;45572;48.804;8.330;2023-11-21T11:43:08;10.70;96.80
3550;DHT22;45572;48.804;8.330;2023-11-21T11:45:36;10.80;96.80
3550;DHT22;45572;48.804;8.330;2023-11-21T11:48:10;10.90;96.80
3550;DHT22;45572;48.804;8.330;2023-11-21T11:51:01;11.00;96.80
3550;DHT22;45572;48.804;8.330;2023-11-21T11:53:35;11.00;96.80
3550;DHT22;45572;48.804;8.330;2023-11-21T11:56:19;11.10;96.80
3550;DHT22;45572;48.804;8.330;2023-11-21T11:58:49;11.10;96.80
3550;DHT22;45572;48.804;8.330;2023-11-21T12:01:18;11.10;96.80
3550;DHT22;45572;48.804;8.330;2023-11-21T12:06:48;11.10;96.80
3550;DHT22;45572;48.804;8.330;2023-11-21T12:09:18;11.10;96.80
3550;DHT22;45572;48.804;8.330;2023-11-21T12:11:49;11.10;96.80
3550;DHT22;45572;48.804;8.330;2023-11-21T12:14:17;11.20;96.80
3550;DHT22;45572;48.804;8.330;2023-11-21T12:16:45;11.20;96.80
3550;DHT22;45572;48.804;8.330;2023-11-21T12:19:14;11.20;96.80
3550;DHT22;45572;48.804;8.330;2023-11-21T12:21:42;11.10;96.80
3550;DHT22;45572;48.804;8.330;2023-11-21T12:24:12;11.10;96.80
3550;DHT22;45572;48.804;8.330;2023-11-21T12:26:41;11.20;96.80
3550;DHT22;45572;48.804;8.330;2023-11-21T12:29:09;11.30;96.80
3550;DHT22;45572;48.804;8.330;2023-11-21T12:31:39;11.30;96.80
3550;DHT22;45572;48.804;8.330;2023-11-21T12:34:07;11.40;96.80
3550;DHT22;45572;48.804;8.330;2023-11-21T12:36:38;11.40;96.80
3550;DHT22;45572;48.804;8.330;2023-11-21T12:39:06;11.50;96.70
3550;DHT22;45572;48.804;8.330;2023-11-21T12:41:37;11.50;96.70
3550;DHT22;45572;48.804;8.330;2023-11-21T12:44:10;11.50;96.80
3550;DHT22;45572;48.804;8.330;2023-11-21T12:46:41;11.60;96.70
3550;DHT22;45572;48.804;8.330;2023-11-21T12:49:11;11.70;96.70
3550;DHT22;45572;48.804;8.330;2023-11-21T12:51:44;11.60;96.30
3550;DHT22;45572;48.804;8.330;2023-11-21T12:54:12;11.60;96.40
3550;DHT22;45572;48.804;8.330;2023-11-21T12:56:45;11.70;96.50
3550;DHT22;45572;48.804;8.330;2023-11-21T12:59:16;11.70;96.10
3550;DHT22;45572;48.804;8.330;2023-11-21T13:01:44;11.60;96.30
3550;DHT22;45572;48.804;8.330;2023-11-21T13:04:13;11.60;96.30
3550;DHT22;45572;48.804;8.330;2023-11-21T13:06:41;11.60;96.40
3550;DHT22;45572;48.804;8.330;2023-11-21T13:09:09;11.70;96.20
3550;DHT22;45572;48.804;8.330;2023-11-21T13:11:37;11.70;96.10
3550;DHT22;45572;48.804;8.330;2023-11-21T13:14:10;11.70;96.30
3550;DHT22;45572;48.804;8.330;2023-11-21T13:16:39;11.80;96.20
3550;DHT22;45572;48.804;8.330;2023-11-21T13:19:13;11.70;96.20
3550;DHT22;45572;48.804;8.330;2023-11-21T13:21:40;11.60;96.30
3550;DHT22;45572;48.804;8.330;2023-11-21T13:24:08;11.50;96.40
3550;DHT22;45572;48.804;8.330;2023-11-21T13:26:36;11.50;96.50
3550;DHT22;45572;48.804;8.330;2023-11-21T13:29:05;11.40;96.30
3550;DHT22;45572;48.804;8.330;2023-11-21T13:31:34;11.30;96.30
3550;DHT22;45572;48.804;8.330;2023-11-21T13:34:04;11.20;96.60
3550;DHT22;45572;48.804;8.330;2023-11-21T13:36:34;11.20;96.70
3550;DHT22;45572;48.804;8.330;2023-11-21T13:39:03;11.20;96.60
3550;DHT22;45572;48.804;8.330;2023-11-21T13:41:34;11.20;96.30
3550;DHT22;45572;48.804;8.330;2023-11-21T13:44:05;11.10;96.30
3550;DHT22;45572;48.804;8.330;2023-11-21T13:46:43;11.00;96.50
3550;DHT22;45572;48.804;8.330;2023-11-21T13:49:12;11.00;96.80
3550;DHT22;45572;48.804;8.330;2023-11-21T13:51:42;11.00;96.80
3550;DHT22;45572;48.804;8.330;2023-11-21T13:54:11;11.00;96.80
3550;DHT22;45572;48.804;8.330;2023-11-21T13:56:41;11.00;96.80
3550;DHT22;45572;48.804;8.330;2023-11-21T13:59:11;11.10;96.80
3550;DHT22;45572;48.804;8.330;2023-11-21T14:01:48;11.10;96.80
3550;DHT22;45572;48.804;8.330;2023-11-21T14:04:26;11.20;96.80
3550;DHT22;45572;48.804;8.330;2023-11-21T14:07:08;11.30;96.80
3550;DHT22;45572;48.804;8.330;2023-11-21T14:09:49;11.30;96.70
3550;DHT22;45572;48.804;8.330;2023-11-21T14:12:17;11.30;96.60
3550;DHT22;45572;48.804;8.330;2023-11-21T14:14:44;11.30;96.50
3550;DHT22;45572;48.804;8.330;2023-11-21T14:17:15;11.30;96.80
3550;DHT22;45572;48.804;8.330;2023-11-21T14:19:43;11.40;96.80
3550;DHT22;45572;48.804;8.330;2023-11-21T14:22:11;11.40;96.80
3550;DHT22;45572;48.804;8.330;2023-11-21T14:24:39;11.30;96.80
3550;DHT22;45572;48.804;8.330;2023-11-21T14:27:10;11.40;96.80
3550;DHT22;45572;48.804;8.330;2023-11-21T14:29:38;11.40;96.70
3550;DHT22;45572;48.804;8.330;2023-11-21T14:32:10;11.50;96.70
3550;DHT22;45572;48.804;8.330;2023-11-21T14:34:39;11.50;96.60
3550;DHT22;45572;48.804;8.330;2023-11-21T14:37:09;11.40;96.70
3550;DHT22;45572;48.804;8.330;2023-11-21T14:39:40;11.40;96.60
3550;DHT22;45572;48.804;8.330;2023-11-21T14:42:11;11.40;96.70
3550;DHT22;45572;48.804;8.330;2023-11-21T14:44:41;11.40;96.70
3550;DHT22;45572;48.804;8.330;2023-11-21T14:47:09;11.40;96.70
3550;DHT22;45572;48.804;8.330;2023-11-21T14:49:43;11.40;96.80
3550;DHT22;45572;48.804;8.330;2023-11-21T14:52:19;11.40;96.80
3550;DHT22;45572;48.804;8.330;2023-11-21T14:54:59;11.40;96.80
3550;DHT22;45572;48.804;8.330;2023-11-21T14:57:41;11.50;96.70
3550;DHT22;45572;48.804;8.330;2023-11-21T15:00:14;11.40;96.60
3550;DHT22;45572;48.804;8.330;2023-11-21T15:03:02;11.50;96.60
3550;DHT22;45572;48.804;8.330;2023-11-21T15:05:32;11.50;96.50
3550;DHT22;45572;48.804;8.330;2023-11-21T15:08:01;11.30;96.60
3550;DHT22;45572;48.804;8.330;2023-11-21T15:10:45;11.30;96.70
3550;DHT22;45572;48.804;8.330;2023-11-21T15:13:12;11.40;96.70
3550;DHT22;45572;48.804;8.330;2023-11-21T15:15:42;11.30;96.50
3550;DHT22;45572;48.804;8.330;2023-11-21T15:18:09;11.30;96.30
3550;DHT22;45572;48.804;8.330;2023-11-21T15:20:40;11.10;96.10
3550;DHT22;45572;48.804;8.330;2023-11-21T15:23:09;10.90;95.80
3550;DHT22;45572;48.804;8.330;2023-11-21T15:25:39;10.80;96.00
3550;DHT22;45572;48.804;8.330;2023-11-21T15:28:07;10.80;96.20
3550;DHT22;45572;48.804;8.330;2023-11-21T15:30:35;10.80;96.30
3550;DHT22;45572;48.804;8.330;2023-11-21T15:33:03;10.80;96.40
3550;DHT22;45572;48.804;8.330;2023-11-21T15:35:31;10.80;96.70
3550;DHT22;45572;48.804;8.330;2023-11-21T15:38:01;10.70;96.80
3550;DHT22;45572;48.804;8.330;2023-11-21T15:40:29;10.70;96.80
3550;DHT22;45572;48.804;8.330;2023-11-21T15:42:58;10.70;96.80
3550;DHT22;45572;48.804;8.330;2023-11-21T15:45:26;10.70;96.80
3550;DHT22;45572;48.804;8.330;2023-11-21T15:47:54;10.70;96.80
3550;DHT22;45572;48.804;8.330;2023-11-21T15:50:23;10.60;96.80
3550;DHT22;45572;48.804;8.330;2023-11-21T15:53:06;10.50;96.80
3550;DHT22;45572;48.804;8.330;2023-11-21T15:55:34;10.60;96.80
3550;DHT22;45572;48.804;8.330;2023-11-21T15:58:08;10.60;96.80
3550;DHT22;45572;48.804;8.330;2023-11-21T16:00:36;10.70;96.80
3550;DHT22;45572;48.804;8.330;2023-11-21T16:03:04;10.70;96.80
3550;DHT22;45572;48.804;8.330;2023-11-21T16:05:32;10.70;96.80